createdAt,value
2018-07-22T00:00:55.964Z,11.50
2018-07-22T00:03:25.296Z,19.30
2018-07-22T00:05:54.162Z,12.83
2018-07-22T00:08:23.426Z,12.37
2018-07-22T00:10:52.648Z,12.83
2018-07-22T00:13:21.606Z,14.87
2018-07-22T00:15:50.242Z,12.10
2018-07-22T00:18:18.910Z,14.07
2018-07-22T00:20:47.872Z,9.83
2018-07-22T00:23:17.234Z,9.67
2018-07-22T00:25:46.385Z,10.87
2018-07-22T00:28:15.337Z,13.00
2018-07-22T00:30:44.164Z,9.87
2018-07-22T00:33:12.865Z,13.67
2018-07-22T00:35:41.723Z,12.40
2018-07-22T00:38:10.561Z,16.33
2018-07-22T00:40:39.197Z,11.73
2018-07-22T00:43:08.172Z,9.50
2018-07-22T00:45:37.611Z,10.33
2018-07-22T00:48:06.273Z,16.23
2018-07-22T00:50:34.934Z,10.50
2018-07-22T00:53:03.640Z,10.90
2018-07-22T00:55:32.279Z,12.40
2018-07-22T00:58:00.979Z,10.20
2018-07-22T01:00:29.777Z,14.57
2018-07-22T01:02:58.458Z,12.50
2018-07-22T01:05:27.297Z,12.07
2018-07-22T01:07:56.159Z,14.00
2018-07-22T01:10:24.848Z,13.40
2018-07-22T01:12:53.569Z,14.60
2018-07-22T01:15:22.270Z,18.97
2018-07-22T01:17:51.098Z,19.43
2018-07-22T01:20:20.646Z,14.43
2018-07-22T01:22:49.310Z,15.43
2018-07-22T01:25:18.158Z,14.57
2018-07-22T01:27:46.821Z,16.33
2018-07-22T01:30:15.576Z,19.10
2018-07-22T01:32:44.988Z,14.17
2018-07-22T01:35:14.350Z,12.97
2018-07-22T01:37:43.410Z,17.33
2018-07-22T01:40:12.712Z,18.80
2018-07-22T01:42:42.008Z,15.73
2018-07-22T01:45:10.635Z,15.70
2018-07-22T01:47:39.301Z,15.97
2018-07-22T01:50:08.153Z,19.03
2018-07-22T01:52:36.886Z,17.40
2018-07-22T01:55:06.153Z,19.07
2018-07-22T01:57:34.789Z,15.37
2018-07-22T02:00:03.564Z,17.90
2018-07-22T02:02:32.156Z,15.97
2018-07-22T02:05:00.826Z,13.30
2018-07-22T02:07:29.809Z,16.07
2018-07-22T02:09:58.560Z,16.07
2018-07-22T02:12:27.190Z,17.20
2018-07-22T02:14:55.850Z,18.87
2018-07-22T02:17:24.505Z,15.67
2018-07-22T02:19:53.718Z,18.37
2018-07-22T02:22:22.403Z,13.90
2018-07-22T02:24:50.972Z,14.60
2018-07-22T02:27:19.800Z,16.53
2018-07-22T02:29:48.448Z,16.10
2018-07-22T02:32:17.118Z,14.43
2018-07-22T02:34:45.816Z,12.70
2018-07-22T02:37:14.539Z,12.73
2018-07-22T02:39:43.183Z,15.33
2018-07-22T02:42:11.798Z,14.53
2018-07-22T02:44:40.422Z,12.73
2018-07-22T02:47:09.134Z,12.27
2018-07-22T02:49:37.785Z,17.80
2018-07-22T02:52:06.714Z,20.20
2018-07-22T02:54:36.136Z,19.57
2018-07-22T02:57:05.090Z,16.27
2018-07-22T02:59:33.762Z,17.63
2018-07-22T03:02:02.476Z,17.77
2018-07-22T03:04:31.204Z,19.07
2018-07-22T03:06:59.785Z,18.47
2018-07-22T03:09:28.389Z,23.87
2018-07-22T03:11:57.009Z,24.47
2018-07-22T03:14:25.802Z,18.50
2018-07-22T03:16:55.452Z,15.73
2018-07-22T03:19:24.238Z,14.07
2018-07-22T03:21:53.567Z,17.50
2018-07-22T03:24:22.308Z,17.60
2018-07-22T03:26:51.000Z,16.97
2018-07-22T03:29:19.603Z,15.37
2018-07-22T03:31:48.300Z,19.20
2018-07-22T03:34:16.995Z,17.70
2018-07-22T03:36:45.904Z,19.73
2018-07-22T03:39:14.648Z,15.43
2018-07-22T03:41:43.585Z,16.00
2018-07-22T03:44:12.819Z,19.13
2018-07-22T03:46:42.005Z,17.10
2018-07-22T03:49:10.603Z,16.30
2018-07-22T03:51:39.544Z,13.77
2018-07-22T03:54:08.193Z,20.30
2018-07-22T03:56:36.837Z,18.60
2018-07-22T03:59:05.528Z,16.60
2018-07-22T04:01:34.169Z,15.43
2018-07-22T04:04:02.815Z,14.17
2018-07-22T04:06:31.528Z,22.70
2018-07-22T04:09:00.085Z,16.23
2018-07-22T04:11:28.746Z,24.50
2018-07-22T04:13:57.383Z,19.97
2018-07-22T04:16:26.026Z,17.97
2018-07-22T04:18:55.089Z,18.50
2018-07-22T04:21:24.795Z,17.10
2018-07-22T04:23:53.584Z,20.10
2018-07-22T04:26:22.657Z,16.10
2018-07-22T04:28:51.778Z,16.00
2018-07-22T04:31:20.653Z,25.20
2018-07-22T04:33:49.674Z,18.53
2018-07-22T04:36:18.905Z,17.97
2018-07-22T04:38:48.096Z,18.20
2018-07-22T04:41:17.426Z,18.00
2018-07-22T04:43:46.059Z,16.37
2018-07-22T04:46:14.688Z,17.30
2018-07-22T04:48:43.351Z,14.57
2018-07-22T04:51:12.039Z,15.93
2018-07-22T04:53:40.668Z,15.83
2018-07-22T04:56:09.611Z,17.93
2018-07-22T04:58:38.891Z,18.50
2018-07-22T05:01:07.545Z,17.60
2018-07-22T05:03:36.465Z,14.07
2018-07-22T05:06:05.706Z,16.90
2018-07-22T05:08:34.969Z,22.47
2018-07-22T05:11:03.739Z,16.07
2018-07-22T05:13:32.370Z,14.03
2018-07-22T05:16:01.628Z,14.13
2018-07-22T05:18:30.944Z,16.33
2018-07-22T05:20:59.599Z,26.37
2018-07-22T05:23:28.347Z,15.07
2018-07-22T05:25:57.615Z,14.83
2018-07-22T05:28:26.341Z,17.17
2018-07-22T05:30:55.004Z,16.60
2018-07-22T05:33:23.878Z,13.00
2018-07-22T05:35:52.631Z,16.70
2018-07-22T05:38:21.344Z,13.67
2018-07-22T05:40:50.685Z,19.00
2018-07-22T05:43:19.375Z,17.00
2018-07-22T05:45:48.790Z,18.70
2018-07-22T05:48:17.429Z,16.97
2018-07-22T05:50:46.087Z,13.80
2018-07-22T05:53:15.258Z,15.50
2018-07-22T05:55:43.882Z,18.60
2018-07-22T05:58:12.671Z,16.23
2018-07-22T06:00:41.304Z,17.77
2018-07-22T06:03:09.999Z,14.90
2018-07-22T06:05:38.679Z,15.13
2018-07-22T06:08:07.380Z,14.73
2018-07-22T06:10:36.113Z,14.00
2018-07-22T06:13:04.870Z,13.40
2018-07-22T06:15:33.554Z,16.20
2018-07-22T06:18:02.314Z,14.80
2018-07-22T06:20:31.038Z,16.23
2018-07-22T06:23:00.268Z,19.07
2018-07-22T06:25:28.990Z,17.23
2018-07-22T06:27:57.702Z,22.13
2018-07-22T06:30:26.426Z,14.03
2018-07-22T06:32:55.030Z,19.50
2018-07-22T06:35:24.355Z,25.33
2018-07-22T06:37:53.408Z,19.10
2018-07-22T06:40:22.087Z,19.37
2018-07-22T06:42:50.935Z,16.50
2018-07-22T06:45:19.596Z,15.10
2018-07-22T06:47:48.202Z,14.73
2018-07-22T06:50:16.876Z,14.87
2018-07-22T06:52:45.525Z,16.33
2018-07-22T06:55:14.194Z,15.20
2018-07-22T06:57:42.960Z,15.53
2018-07-22T07:00:11.643Z,14.83
2018-07-22T07:02:40.366Z,20.50
2018-07-22T07:05:09.188Z,17.43
2018-07-22T07:07:38.125Z,17.53
2018-07-22T07:10:07.539Z,16.07
2018-07-22T07:12:36.267Z,16.87
2018-07-22T07:15:06.337Z,17.80
2018-07-22T07:17:35.049Z,22.50
2018-07-22T07:20:03.791Z,19.13
2018-07-22T07:22:32.504Z,17.43
2018-07-22T07:25:01.153Z,16.30
2018-07-22T07:27:29.799Z,19.20
2018-07-22T07:29:58.520Z,16.80
2018-07-22T07:32:27.246Z,18.40
2018-07-22T07:34:55.952Z,19.37
2018-07-22T07:37:26.986Z,17.57
2018-07-22T07:39:55.658Z,16.20
2018-07-22T07:42:24.377Z,16.67
2018-07-22T07:44:56.154Z,18.20
2018-07-22T07:47:25.399Z,15.13
2018-07-22T07:49:54.517Z,21.30
2018-07-22T07:52:24.566Z,18.27
2018-07-22T07:54:53.871Z,16.30
2018-07-22T07:57:23.207Z,18.17
2018-07-22T07:59:54.212Z,15.23
2018-07-22T08:02:24.736Z,17.60
2018-07-22T08:04:53.716Z,16.00
2018-07-22T08:07:23.062Z,16.93
2018-07-22T08:09:53.144Z,14.80
2018-07-22T08:12:22.408Z,14.73
2018-07-22T08:14:51.165Z,17.20
2018-07-22T08:17:19.862Z,19.80
2018-07-22T08:19:48.784Z,18.93
2018-07-22T08:22:17.585Z,15.97
2018-07-22T08:24:46.295Z,17.70
2018-07-22T08:27:14.968Z,18.00
2018-07-22T08:29:44.882Z,19.47
2018-07-22T08:32:14.351Z,18.67
2018-07-22T08:34:43.012Z,19.57
2018-07-22T08:37:11.753Z,16.50
2018-07-22T08:39:40.438Z,16.10
2018-07-22T08:42:09.296Z,17.87
2018-07-22T08:44:38.533Z,15.83
2018-07-22T08:47:07.364Z,15.87
2018-07-22T08:49:37.974Z,16.83
2018-07-22T08:52:07.004Z,16.67
2018-07-22T08:54:36.487Z,14.43
2018-07-22T08:57:05.573Z,14.43
2018-07-22T08:59:34.360Z,14.90
2018-07-22T09:02:03.526Z,13.90
2018-07-22T09:04:33.248Z,13.97
2018-07-22T09:07:02.562Z,13.53
2018-07-22T09:09:31.781Z,16.47
2018-07-22T09:12:00.412Z,18.50
2018-07-22T09:14:29.156Z,14.37
2018-07-22T09:16:57.874Z,15.80
2018-07-22T09:19:26.517Z,18.20
2018-07-22T09:21:55.565Z,13.97
2018-07-22T09:24:24.284Z,15.93
2018-07-22T09:26:53.511Z,15.07
2018-07-22T09:29:22.429Z,15.83
2018-07-22T09:31:51.179Z,14.33
2018-07-22T09:34:19.899Z,16.80
2018-07-22T09:36:48.551Z,16.33
2018-07-22T09:39:17.227Z,15.40
2018-07-22T09:41:45.997Z,18.70
2018-07-22T09:44:15.262Z,16.03
2018-07-22T09:46:47.286Z,16.30
2018-07-22T09:49:16.045Z,15.90
2018-07-22T09:51:44.749Z,15.83
2018-07-22T09:54:14.591Z,15.73
2018-07-22T09:56:43.340Z,15.00
2018-07-22T09:59:12.714Z,16.07
2018-07-22T10:01:41.855Z,17.07
2018-07-22T10:04:10.826Z,14.77
2018-07-22T10:06:40.053Z,14.87
2018-07-22T10:09:10.609Z,15.27
2018-07-22T10:11:39.277Z,15.00
2018-07-22T10:14:08.044Z,15.50
2018-07-22T10:16:36.737Z,14.90
2018-07-22T10:19:05.555Z,16.20
2018-07-22T10:21:34.816Z,14.10
2018-07-22T10:24:03.899Z,13.20
2018-07-22T10:26:33.192Z,14.57
2018-07-22T10:29:02.294Z,14.33
2018-07-22T10:31:31.654Z,16.00
2018-07-22T10:34:00.665Z,13.77
2018-07-22T10:36:32.229Z,14.20
2018-07-22T10:39:01.324Z,15.70
2018-07-22T10:41:30.583Z,13.57
2018-07-22T10:44:03.500Z,16.43
2018-07-22T10:46:32.541Z,15.93
2018-07-22T10:49:01.503Z,17.40
2018-07-22T10:51:31.328Z,16.40
2018-07-22T10:54:02.796Z,16.57
2018-07-22T10:56:31.678Z,15.43
2018-07-22T10:59:00.611Z,14.27
2018-07-22T11:01:29.491Z,12.97
2018-07-22T11:03:58.539Z,15.07
2018-07-22T11:06:27.510Z,18.03
2018-07-22T11:08:56.775Z,18.43
2018-07-22T11:11:26.028Z,15.13
2018-07-22T11:13:54.911Z,17.40
2018-07-22T11:16:24.231Z,16.90
2018-07-22T11:18:52.967Z,15.10
2018-07-22T11:21:22.110Z,18.40
2018-07-22T11:23:51.107Z,18.40
2018-07-22T11:26:19.937Z,17.47
2018-07-22T11:28:48.706Z,17.40
2018-07-22T11:31:17.501Z,17.43
2018-07-22T11:33:48.430Z,17.13
2018-07-22T11:36:17.366Z,16.27
2018-07-22T11:38:46.197Z,16.57
2018-07-22T11:41:15.834Z,18.33
2018-07-22T11:43:45.213Z,15.80
2018-07-22T11:46:16.908Z,14.47
2018-07-22T11:48:45.754Z,15.00
2018-07-22T11:51:20.489Z,15.17
2018-07-22T11:53:49.184Z,15.57
2018-07-22T11:56:17.910Z,18.13
2018-07-22T11:58:46.648Z,16.47
2018-07-22T12:01:15.397Z,15.20
2018-07-22T12:03:44.497Z,17.77
2018-07-22T12:06:13.317Z,17.17
2018-07-22T12:08:42.273Z,16.67
2018-07-22T12:11:11.453Z,17.40
2018-07-22T12:13:40.234Z,15.03
2018-07-22T12:16:08.910Z,18.83
2018-07-22T12:18:37.628Z,17.10
2018-07-22T12:21:06.469Z,17.17
2018-07-22T12:23:41.763Z,16.10
2018-07-22T12:26:10.741Z,15.93
2018-07-22T12:28:39.519Z,15.57
2018-07-22T12:31:08.454Z,14.73
2018-07-22T12:33:37.404Z,17.17
2018-07-22T12:36:06.861Z,15.00
2018-07-22T12:38:36.047Z,15.97
2018-07-22T12:41:04.727Z,19.27
2018-07-22T12:43:33.508Z,14.80
2018-07-22T12:46:02.308Z,15.60
2018-07-22T12:48:31.012Z,15.43
2018-07-22T12:51:00.249Z,15.77
2018-07-22T12:53:29.506Z,16.00
2018-07-22T12:55:59.184Z,15.37
2018-07-22T12:58:28.224Z,15.43
2018-07-22T13:00:57.045Z,15.53
2018-07-22T13:03:27.211Z,17.13
2018-07-22T13:05:56.659Z,17.07
2018-07-22T13:08:25.526Z,16.43
2018-07-22T13:10:54.163Z,16.43
2018-07-22T13:13:22.929Z,17.80
2018-07-22T13:15:51.668Z,16.53
2018-07-22T13:18:20.461Z,15.40
2018-07-22T13:20:49.210Z,20.63
2018-07-22T13:26:47.583Z,15.27
2018-07-22T13:29:25.491Z,16.07
2018-07-22T13:39:43.900Z,16.20
2018-07-22T13:42:30.247Z,15.33
2018-07-22T13:45:14.135Z,15.73
2018-07-22T13:56:48.040Z,15.90
2018-07-22T14:09:26.331Z,17.03
2018-07-22T14:11:55.847Z,25.43
2018-07-22T14:14:24.595Z,23.27
2018-07-22T14:16:53.663Z,26.17
2018-07-22T14:19:22.981Z,27.07
2018-07-22T14:21:51.757Z,24.23
2018-07-22T14:24:21.348Z,27.40
2018-07-22T14:26:50.359Z,27.00
2018-07-22T14:29:19.483Z,21.10
2018-07-22T14:31:48.342Z,19.50
2018-07-22T14:34:17.130Z,12.90
2018-07-22T14:36:45.860Z,17.33
2018-07-22T14:39:15.241Z,12.90
2018-07-22T14:41:44.124Z,13.70
2018-07-22T14:44:12.910Z,14.60
2018-07-22T14:46:41.767Z,9.50
2018-07-22T14:49:10.526Z,9.57
2018-07-22T14:51:39.429Z,9.30
2018-07-22T14:54:08.943Z,9.60
2018-07-22T14:56:37.878Z,12.97
2018-07-22T14:59:06.776Z,10.60
2018-07-22T15:01:36.435Z,12.27
2018-07-22T15:04:12.659Z,10.40
2018-07-22T15:06:45.270Z,11.20
2018-07-22T15:09:29.932Z,13.63
2018-07-22T15:12:03.211Z,11.07
2018-07-22T15:14:44.352Z,13.50
2018-07-22T15:17:13.241Z,12.97
2018-07-22T15:19:42.488Z,14.60
2018-07-22T15:22:11.754Z,13.60
2018-07-22T15:24:40.604Z,12.90
2018-07-22T15:27:09.336Z,12.60
2018-07-22T15:29:38.158Z,13.33
2018-07-22T15:32:07.396Z,13.30
2018-07-22T15:34:37.101Z,12.30
2018-07-22T15:37:06.546Z,11.87
2018-07-22T15:39:35.318Z,11.80
2018-07-22T15:42:04.066Z,12.83
2018-07-22T15:44:32.865Z,12.97
2018-07-22T15:47:04.461Z,12.40
2018-07-22T15:49:33.681Z,14.37
2018-07-22T15:52:02.893Z,13.80
2018-07-22T15:54:31.952Z,13.40
2018-07-22T15:57:00.700Z,13.70
2018-07-22T15:59:29.501Z,14.00
2018-07-22T16:01:58.737Z,14.07
2018-07-22T16:04:28.095Z,13.07
2018-07-22T16:06:57.065Z,14.27
2018-07-22T16:09:25.840Z,14.00
2018-07-22T16:11:54.965Z,13.40
2018-07-22T16:14:23.800Z,16.20
2018-07-22T16:16:52.859Z,15.00
2018-07-22T16:19:22.617Z,15.47
2018-07-22T16:21:52.844Z,18.73
2018-07-22T16:24:21.806Z,13.60
2018-07-22T16:26:50.616Z,15.97
2018-07-22T16:29:19.502Z,15.60
2018-07-22T16:31:48.725Z,16.40
2018-07-22T16:34:17.775Z,15.80
2018-07-22T16:36:47.312Z,18.30
2018-07-22T16:39:16.849Z,17.80
2018-07-22T16:41:45.590Z,17.50
2018-07-22T16:44:14.427Z,17.87
2018-07-22T16:46:43.335Z,17.67
2018-07-22T16:49:12.063Z,20.63
2018-07-22T16:51:40.741Z,15.50
2018-07-22T16:54:10.788Z,16.20
2018-07-22T16:56:40.260Z,14.70
2018-07-22T16:59:18.218Z,14.87
2018-07-22T17:01:47.742Z,15.90
2018-07-22T17:04:16.499Z,15.87
2018-07-22T17:06:53.189Z,14.70
2018-07-22T17:09:22.696Z,13.63
2018-07-22T17:11:53.472Z,14.30
2018-07-22T17:14:22.441Z,14.47
2018-07-22T17:16:56.710Z,15.77
2018-07-22T17:19:54.588Z,15.20
2018-07-22T17:32:55.314Z,17.33
2018-07-22T17:50:29.359Z,14.50
2018-07-22T17:53:11.146Z,17.23
2018-07-22T17:56:02.536Z,15.00
2018-07-22T17:58:56.826Z,17.20
2018-07-22T18:01:47.813Z,13.93
2018-07-22T18:09:27.757Z,17.60
2018-07-22T18:16:59.248Z,15.67
2018-07-22T18:23:54.824Z,17.67
2018-07-22T18:26:23.957Z,15.27
2018-07-22T18:28:58.516Z,17.50
2018-07-22T18:31:29.419Z,15.73
2018-07-22T18:38:52.306Z,14.07
2018-07-22T18:41:25.976Z,13.63
2018-07-22T18:46:46.049Z,13.90
2018-07-22T18:49:27.132Z,15.93
2018-07-22T18:51:56.116Z,12.07
2018-07-22T18:54:25.707Z,13.77
2018-07-22T18:56:54.937Z,13.30
2018-07-22T19:02:29.824Z,14.70
2018-07-22T19:08:08.964Z,13.73
2018-07-22T19:10:43.260Z,13.40
2018-07-22T19:13:20.351Z,16.77
2018-07-22T19:15:50.691Z,16.40
2018-07-22T19:18:51.487Z,17.63
2018-07-22T19:21:20.746Z,13.70
2018-07-22T19:24:07.279Z,17.40
2018-07-22T19:26:39.423Z,16.80
2018-07-22T19:29:08.522Z,17.37
2018-07-22T19:31:45.956Z,14.00
2018-07-22T19:34:17.428Z,15.37
2018-07-22T19:36:47.172Z,14.97
2018-07-22T19:42:16.484Z,14.10
2018-07-22T19:44:49.012Z,15.27
2018-07-22T19:47:46.780Z,14.53
2018-07-22T19:50:22.213Z,16.27
2018-07-22T19:52:51.948Z,15.33
2018-07-22T19:55:20.936Z,14.17
2018-07-22T19:57:50.483Z,16.53
2018-07-22T20:00:19.613Z,14.50
2018-07-22T20:02:48.608Z,15.00
2018-07-22T20:05:17.613Z,15.30
2018-07-22T20:08:58.338Z,18.60
2018-07-22T20:55:27.287Z,21.10
2018-07-22T20:57:57.419Z,16.83
2018-07-22T21:00:34.608Z,16.83
2018-07-22T21:03:35.557Z,16.00
2018-07-22T21:06:05.055Z,15.07
2018-07-22T21:08:40.008Z,18.40
2018-07-22T21:20:32.911Z,14.53
2018-07-22T21:25:41.233Z,18.20
2018-07-22T21:28:38.440Z,16.67
2018-07-22T21:34:06.899Z,14.90
2018-07-22T21:42:24.499Z,15.20
2018-07-22T22:29:51.773Z,22.90
2018-07-22T22:32:23.967Z,22.40
2018-07-22T22:34:57.846Z,19.90
2018-07-22T22:37:31.000Z,20.93
2018-07-22T22:39:59.814Z,25.20
2018-07-22T22:42:28.512Z,22.30
2018-07-22T22:45:02.698Z,22.43
2018-07-22T22:47:37.130Z,23.60
2018-07-22T22:50:09.791Z,19.90
2018-07-22T22:52:44.067Z,21.43
2018-07-22T22:55:16.125Z,23.40
2018-07-22T22:57:58.047Z,19.67
2018-07-22T23:00:29.448Z,26.47
2018-07-22T23:02:59.232Z,20.50
2018-07-22T23:05:28.014Z,21.53
2018-07-22T23:07:56.851Z,22.03
2018-07-22T23:10:25.774Z,24.10
2018-07-22T23:12:54.462Z,18.97
2018-07-22T23:15:23.048Z,19.73
2018-07-22T23:17:51.758Z,19.93
2018-07-22T23:20:20.402Z,18.97
2018-07-22T23:22:49.085Z,21.40
2018-07-22T23:25:17.693Z,18.30
2018-07-22T23:27:46.303Z,20.83
2018-07-22T23:30:14.875Z,20.13
2018-07-22T23:32:43.466Z,18.30
2018-07-22T23:35:12.098Z,25.53
2018-07-22T23:37:40.707Z,26.30
2018-07-22T23:40:10.169Z,22.63
2018-07-22T23:42:38.775Z,21.60
2018-07-22T23:45:07.373Z,20.57
2018-07-22T23:47:37.549Z,20.53
2018-07-22T23:50:06.898Z,19.20
2018-07-22T23:52:35.888Z,23.53
2018-07-22T23:55:04.568Z,22.23
2018-07-22T23:57:33.271Z,20.87
